sensor_id;sensor_type;location;lat;lon;timestamp;temperature;humidity
5930;DHT22;2990;48.746;9.236;2022-09-03T00:01:30;16.70;1.00
5930;DHT22;2990;48.746;9.236;2022-09-03T00:04:03;16.70;1.00
5930;DHT22;2990;48.746;9.236;2022-09-03T00:06:41;16.70;1.00
5930;DHT22;2990;48.746;9.236;2022-09-03T00:09:24;16.70;1.00
5930;DHT22;2990;48.746;9.236;2022-09-03T00:12:00;16.70;1.00
5930;DHT22;2990;48.746;9.236;2022-09-03T00:14:31;16.80;1.00
5930;DHT22;2990;48.746;9.236;2022-09-03T00:17:01;16.80;1.00
5930;DHT22;2990;48.746;9.236;2022-09-03T00:19:35;16.90;1.00
5930;DHT22;2990;48.746;9.236;2022-09-03T00:22:23;16.80;1.00
5930;DHT22;2990;48.746;9.236;2022-09-03T00:24:51;16.80;1.00
5930;DHT22;2990;48.746;9.236;2022-09-03T00:27:20;16.80;1.00
5930;DHT22;2990;48.746;9.236;2022-09-03T00:30:00;16.80;1.00
5930;DHT22;2990;48.746;9.236;2022-09-03T00:35:31;16.90;1.00
5930;DHT22;2990;48.746;9.236;2022-09-03T00:37:58;16.80;1.00
5930;DHT22;2990;48.746;9.236;2022-09-03T07:37:32;16.80;99.90
5930;DHT22;2990;48.746;9.236;2022-09-03T07:39:58;17.50;1.00
5930;DHT22;2990;48.746;9.236;2022-09-03T07:42:24;17.60;99.90
5930;DHT22;2990;48.746;9.236;2022-09-03T07:44:51;17.70;1.00
5930;DHT22;2990;48.746;9.236;2022-09-03T07:47:17;17.80;1.00
5930;DHT22;2990;48.746;9.236;2022-09-03T07:49:42;17.90;99.90
5930;DHT22;2990;48.746;9.236;2022-09-03T07:52:08;18.00;99.90
5930;DHT22;2990;48.746;9.236;2022-09-03T07:54:33;18.10;99.90
5930;DHT22;2990;48.746;9.236;2022-09-03T07:56:59;18.10;99.90
5930;DHT22;2990;48.746;9.236;2022-09-03T07:59:26;18.20;99.90
5930;DHT22;2990;48.746;9.236;2022-09-03T08:01:51;18.30;99.90
5930;DHT22;2990;48.746;9.236;2022-09-03T08:04:17;18.40;99.90
5930;DHT22;2990;48.746;9.236;2022-09-03T08:18:59;18.50;1.00
5930;DHT22;2990;48.746;9.236;2022-09-03T08:21:26;18.90;96.20
5930;DHT22;2990;48.746;9.236;2022-09-03T08:23:54;19.00;1.00
5930;DHT22;2990;48.746;9.236;2022-09-03T08:26:27;19.10;1.00
5930;DHT22;2990;48.746;9.236;2022-09-03T08:28:53;19.20;1.00
5930;DHT22;2990;48.746;9.236;2022-09-03T08:49:02;21.70;99.90
5930;DHT22;2990;48.746;9.236;2022-09-03T08:51:28;22.20;99.90
5930;DHT22;2990;48.746;9.236;2022-09-03T08:53:56;22.30;72.00
5930;DHT22;2990;48.746;9.236;2022-09-03T08:56:30;22.10;90.60
5930;DHT22;2990;48.746;9.236;2022-09-03T08:58:59;22.00;99.90
5930;DHT22;2990;48.746;9.236;2022-09-03T09:07:16;21.80;99.90
5930;DHT22;2990;48.746;9.236;2022-09-03T09:09:53;21.80;99.90
5930;DHT22;2990;48.746;9.236;2022-09-03T13:06:14;16.50;1.00
5930;DHT22;2990;48.746;9.236;2022-09-03T13:11:27;16.30;1.00
5930;DHT22;2990;48.746;9.236;2022-09-03T14:15:15;18.40;1.00
5930;DHT22;2990;48.746;9.236;2022-09-03T14:27:10;18.30;1.00
5930;DHT22;2990;48.746;9.236;2022-09-03T14:29:36;18.70;1.00
5930;DHT22;2990;48.746;9.236;2022-09-03T14:32:43;19.00;1.00
5930;DHT22;2990;48.746;9.236;2022-09-03T14:47:02;19.00;99.90
5930;DHT22;2990;48.746;9.236;2022-09-03T15:00:06;19.10;99.90
5930;DHT22;2990;48.746;9.236;2022-09-03T15:10:58;20.40;93.80
5930;DHT22;2990;48.746;9.236;2022-09-03T15:13:33;20.60;1.00
5930;DHT22;2990;48.746;9.236;2022-09-03T15:16:16;20.70;1.00
5930;DHT22;2990;48.746;9.236;2022-09-03T15:19:07;20.70;1.00
5930;DHT22;2990;48.746;9.236;2022-09-03T15:25:01;20.60;1.00
5930;DHT22;2990;48.746;9.236;2022-09-03T15:27:44;20.80;99.90
5930;DHT22;2990;48.746;9.236;2022-09-03T15:30:13;20.90;1.00
5930;DHT22;2990;48.746;9.236;2022-09-03T15:35:55;20.70;1.00
5930;DHT22;2990;48.746;9.236;2022-09-03T15:41:08;20.60;99.90
5930;DHT22;2990;48.746;9.236;2022-09-03T15:43:47;20.80;1.00
5930;DHT22;2990;48.746;9.236;2022-09-03T15:46:37;20.80;99.90
5930;DHT22;2990;48.746;9.236;2022-09-03T15:49:35;20.90;99.90
5930;DHT22;2990;48.746;9.236;2022-09-03T15:52:30;21.00;99.90
5930;DHT22;2990;48.746;9.236;2022-09-03T15:55:04;20.90;99.90
5930;DHT22;2990;48.746;9.236;2022-09-03T16:00:12;20.90;99.90
5930;DHT22;2990;48.746;9.236;2022-09-03T16:02:53;20.90;46.00
5930;DHT22;2990;48.746;9.236;2022-09-03T16:11:06;20.60;1.00
5930;DHT22;2990;48.746;9.236;2022-09-03T16:16:49;20.60;1.00
5930;DHT22;2990;48.746;9.236;2022-09-03T16:19:44;20.60;1.00
5930;DHT22;2990;48.746;9.236;2022-09-03T16:25:10;20.50;1.00
5930;DHT22;2990;48.746;9.236;2022-09-03T16:27:49;20.40;99.90
5930;DHT22;2990;48.746;9.236;2022-09-03T16:30:41;20.30;1.00
5930;DHT22;2990;48.746;9.236;2022-09-03T16:39:02;20.00;1.00
5930;DHT22;2990;48.746;9.236;2022-09-03T16:47:32;19.70;99.90
5930;DHT22;2990;48.746;9.236;2022-09-03T17:04:03;19.40;1.00
5930;DHT22;2990;48.746;9.236;2022-09-03T17:06:43;19.40;1.00
5930;DHT22;2990;48.746;9.236;2022-09-03T17:09:16;19.40;1.00
5930;DHT22;2990;48.746;9.236;2022-09-03T17:11:58;19.40;1.00
5930;DHT22;2990;48.746;9.236;2022-09-03T17:17:44;19.40;1.00
5930;DHT22;2990;48.746;9.236;2022-09-03T17:30:56;19.40;1.00
5930;DHT22;2990;48.746;9.236;2022-09-03T17:43:57;19.10;99.90
5930;DHT22;2990;48.746;9.236;2022-09-03T17:49:25;19.00;99.90
5930;DHT22;2990;48.746;9.236;2022-09-03T17:52:06;18.90;99.90
5930;DHT22;2990;48.746;9.236;2022-09-03T17:54:44;18.80;99.90
5930;DHT22;2990;48.746;9.236;2022-09-03T17:57:36;18.80;99.90
5930;DHT22;2990;48.746;9.236;2022-09-03T18:00:06;18.70;99.90
5930;DHT22;2990;48.746;9.236;2022-09-03T18:02:41;18.70;99.90
5930;DHT22;2990;48.746;9.236;2022-09-03T18:05:29;18.70;1.00
5930;DHT22;2990;48.746;9.236;2022-09-03T18:08:50;18.70;1.00
5930;DHT22;2990;48.746;9.236;2022-09-03T18:16:14;18.60;1.00
5930;DHT22;2990;48.746;9.236;2022-09-03T18:18:46;18.60;1.00
5930;DHT22;2990;48.746;9.236;2022-09-03T18:21:20;18.60;1.00
5930;DHT22;2990;48.746;9.236;2022-09-03T18:24:55;18.50;1.00
5930;DHT22;2990;48.746;9.236;2022-09-03T18:27:48;18.40;1.00
5930;DHT22;2990;48.746;9.236;2022-09-03T18:30:34;18.40;1.00
5930;DHT22;2990;48.746;9.236;2022-09-03T18:33:23;18.30;1.00
5930;DHT22;2990;48.746;9.236;2022-09-03T18:36:07;18.30;1.00
5930;DHT22;2990;48.746;9.236;2022-09-03T18:39:04;18.20;1.00
5930;DHT22;2990;48.746;9.236;2022-09-03T18:42:24;18.20;1.00
5930;DHT22;2990;48.746;9.236;2022-09-03T18:48:41;18.10;1.00
5930;DHT22;2990;48.746;9.236;2022-09-03T18:51:44;18.10;1.00
5930;DHT22;2990;48.746;9.236;2022-09-03T19:00:45;18.00;1.00
5930;DHT22;2990;48.746;9.236;2022-09-03T19:03:55;17.90;1.00
5930;DHT22;2990;48.746;9.236;2022-09-03T19:09:52;17.80;1.00
5930;DHT22;2990;48.746;9.236;2022-09-03T19:16:04;17.80;1.00
5930;DHT22;2990;48.746;9.236;2022-09-03T19:19:16;17.70;1.00
5930;DHT22;2990;48.746;9.236;2022-09-03T19:22:10;17.70;1.00
5930;DHT22;2990;48.746;9.236;2022-09-03T19:25:09;17.70;1.00
5930;DHT22;2990;48.746;9.236;2022-09-03T19:28:14;17.70;1.00
